sensor_id;sensor_type;location;lat;lon;timestamp;temperature;humidity
7143;DHT22;3613;48.902;9.204;2023-09-19T00:02:14;17.20;1.00
7143;DHT22;3613;48.902;9.204;2023-09-19T00:04:40;17.10;13.20
7143;DHT22;3613;48.902;9.204;2023-09-19T00:07:08;16.90;5.30
7143;DHT22;3613;48.902;9.204;2023-09-19T00:09:34;16.90;23.30
7143;DHT22;3613;48.902;9.204;2023-09-19T00:12:06;16.80;39.20
7143;DHT22;3613;48.902;9.204;2023-09-19T00:14:32;16.70;63.10
7143;DHT22;3613;48.902;9.204;2023-09-19T00:17:04;16.60;63.00
7143;DHT22;3613;48.902;9.204;2023-09-19T00:19:39;16.50;76.10
7143;DHT22;3613;48.902;9.204;2023-09-19T00:22:05;16.60;74.70
7143;DHT22;3613;48.902;9.204;2023-09-19T00:24:30;16.50;91.10
7143;DHT22;3613;48.902;9.204;2023-09-19T00:26:56;16.50;92.70
7143;DHT22;3613;48.902;9.204;2023-09-19T00:29:25;16.40;95.00
7143;DHT22;3613;48.902;9.204;2023-09-19T00:31:56;16.50;97.00
7143;DHT22;3613;48.902;9.204;2023-09-19T00:34:28;16.50;90.10
7143;DHT22;3613;48.902;9.204;2023-09-19T00:36:55;16.60;56.60
7143;DHT22;3613;48.902;9.204;2023-09-19T00:39:20;17.00;75.30
7143;DHT22;3613;48.902;9.204;2023-09-19T00:41:47;16.50;90.60
7143;DHT22;3613;48.902;9.204;2023-09-19T00:44:13;16.50;95.40
7143;DHT22;3613;48.902;9.204;2023-09-19T00:46:39;16.40;90.70
7143;DHT22;3613;48.902;9.204;2023-09-19T00:49:07;16.40;97.90
7143;DHT22;3613;48.902;9.204;2023-09-19T00:51:34;16.40;94.50
7143;DHT22;3613;48.902;9.204;2023-09-19T00:54:02;16.40;99.90
7143;DHT22;3613;48.902;9.204;2023-09-19T00:56:28;16.50;90.90
7143;DHT22;3613;48.902;9.204;2023-09-19T00:58:57;16.40;82.50
7143;DHT22;3613;48.902;9.204;2023-09-19T01:01:23;16.50;87.70
7143;DHT22;3613;48.902;9.204;2023-09-19T01:03:53;16.50;91.80
7143;DHT22;3613;48.902;9.204;2023-09-19T01:06:19;16.50;89.40
7143;DHT22;3613;48.902;9.204;2023-09-19T01:08:45;16.50;65.70
7143;DHT22;3613;48.902;9.204;2023-09-19T01:11:28;16.50;79.40
7143;DHT22;3613;48.902;9.204;2023-09-19T01:14:29;16.60;58.70
7143;DHT22;3613;48.902;9.204;2023-09-19T01:23:02;16.70;22.50
7143;DHT22;3613;48.902;9.204;2023-09-19T01:31:02;16.80;8.30
7143;DHT22;3613;48.902;9.204;2023-09-19T01:33:31;17.00;1.00
7143;DHT22;3613;48.902;9.204;2023-09-19T01:36:16;17.00;1.00
7143;DHT22;3613;48.902;9.204;2023-09-19T01:38:42;17.00;1.00
7143;DHT22;3613;48.902;9.204;2023-09-19T01:41:11;17.00;1.00
7143;DHT22;3613;48.902;9.204;2023-09-19T01:43:44;17.00;12.70
7143;DHT22;3613;48.902;9.204;2023-09-19T01:46:16;17.00;1.00
7143;DHT22;3613;48.902;9.204;2023-09-19T01:48:59;17.00;1.00
7143;DHT22;3613;48.902;9.204;2023-09-19T01:51:48;17.00;1.00
7143;DHT22;3613;48.902;9.204;2023-09-19T01:54:26;17.00;1.00
7143;DHT22;3613;48.902;9.204;2023-09-19T01:57:16;16.90;1.00
7143;DHT22;3613;48.902;9.204;2023-09-19T01:59:50;16.90;1.00
7143;DHT22;3613;48.902;9.204;2023-09-19T02:02:17;16.90;1.00
7143;DHT22;3613;48.902;9.204;2023-09-19T02:04:43;16.80;1.00
7143;DHT22;3613;48.902;9.204;2023-09-19T02:07:11;16.70;1.00
7143;DHT22;3613;48.902;9.204;2023-09-19T02:09:37;16.70;1.00
7143;DHT22;3613;48.902;9.204;2023-09-19T02:12:04;16.40;19.10
7143;DHT22;3613;48.902;9.204;2023-09-19T02:14:33;16.40;28.20
7143;DHT22;3613;48.902;9.204;2023-09-19T02:16:59;16.40;28.40
7143;DHT22;3613;48.902;9.204;2023-09-19T02:19:25;16.30;26.70
7143;DHT22;3613;48.902;9.204;2023-09-19T02:21:51;16.30;35.10
7143;DHT22;3613;48.902;9.204;2023-09-19T02:24:19;16.20;41.20
7143;DHT22;3613;48.902;9.204;2023-09-19T02:26:45;16.00;49.90
7143;DHT22;3613;48.902;9.204;2023-09-19T02:29:11;15.90;70.60
7143;DHT22;3613;48.902;9.204;2023-09-19T02:31:38;15.90;88.50
7143;DHT22;3613;48.902;9.204;2023-09-19T02:34:08;15.70;97.70
7143;DHT22;3613;48.902;9.204;2023-09-19T02:36:36;15.60;98.60
7143;DHT22;3613;48.902;9.204;2023-09-19T02:39:02;15.50;99.90
7143;DHT22;3613;48.902;9.204;2023-09-19T02:41:27;15.40;99.90
7143;DHT22;3613;48.902;9.204;2023-09-19T02:43:54;13.10;99.90
7143;DHT22;3613;48.902;9.204;2023-09-19T02:46:20;15.50;99.90
7143;DHT22;3613;48.902;9.204;2023-09-19T02:48:46;15.60;99.90
7143;DHT22;3613;48.902;9.204;2023-09-19T02:51:12;15.60;99.90
7143;DHT22;3613;48.902;9.204;2023-09-19T02:53:39;15.70;99.90
7143;DHT22;3613;48.902;9.204;2023-09-19T02:56:05;15.70;99.90
7143;DHT22;3613;48.902;9.204;2023-09-19T02:58:30;15.70;99.90
7143;DHT22;3613;48.902;9.204;2023-09-19T03:01:10;15.80;99.90
7143;DHT22;3613;48.902;9.204;2023-09-19T03:03:41;15.90;99.10
7143;DHT22;3613;48.902;9.204;2023-09-19T03:06:10;16.00;93.80
7143;DHT22;3613;48.902;9.204;2023-09-19T03:08:39;16.10;96.60
7143;DHT22;3613;48.902;9.204;2023-09-19T03:11:07;16.10;94.10
7143;DHT22;3613;48.902;9.204;2023-09-19T03:13:38;16.10;88.90
7143;DHT22;3613;48.902;9.204;2023-09-19T03:16:05;16.20;71.30
7143;DHT22;3613;48.902;9.204;2023-09-19T03:18:36;16.20;51.00
7143;DHT22;3613;48.902;9.204;2023-09-19T03:21:02;16.30;47.90
7143;DHT22;3613;48.902;9.204;2023-09-19T03:23:32;16.40;47.00
7143;DHT22;3613;48.902;9.204;2023-09-19T03:25:58;16.30;45.90
7143;DHT22;3613;48.902;9.204;2023-09-19T03:28:26;16.30;41.50
7143;DHT22;3613;48.902;9.204;2023-09-19T03:31:00;16.40;41.30
7143;DHT22;3613;48.902;9.204;2023-09-19T03:33:29;16.40;44.80
7143;DHT22;3613;48.902;9.204;2023-09-19T03:35:57;16.40;57.00
7143;DHT22;3613;48.902;9.204;2023-09-19T03:38:23;16.30;73.80
7143;DHT22;3613;48.902;9.204;2023-09-19T03:40:49;16.20;83.70
7143;DHT22;3613;48.902;9.204;2023-09-19T03:43:15;16.20;94.60
7143;DHT22;3613;48.902;9.204;2023-09-19T03:45:42;16.10;99.90
7143;DHT22;3613;48.902;9.204;2023-09-19T03:48:11;16.10;99.90
7143;DHT22;3613;48.902;9.204;2023-09-19T03:50:37;16.10;99.90
7143;DHT22;3613;48.902;9.204;2023-09-19T03:53:03;16.10;99.90
7143;DHT22;3613;48.902;9.204;2023-09-19T03:55:29;16.00;99.90
7143;DHT22;3613;48.902;9.204;2023-09-19T03:57:57;16.00;99.90
7143;DHT22;3613;48.902;9.204;2023-09-19T04:00:23;16.00;99.90
7143;DHT22;3613;48.902;9.204;2023-09-19T04:02:52;16.00;99.90
7143;DHT22;3613;48.902;9.204;2023-09-19T04:05:21;16.00;99.90
7143;DHT22;3613;48.902;9.204;2023-09-19T04:07:51;16.00;99.90
7143;DHT22;3613;48.902;9.204;2023-09-19T04:10:19;16.00;99.90
7143;DHT22;3613;48.902;9.204;2023-09-19T04:12:54;16.00;99.90
7143;DHT22;3613;48.902;9.204;2023-09-19T04:15:25;16.00;99.90
7143;DHT22;3613;48.902;9.204;2023-09-19T04:17:51;16.00;99.90
7143;DHT22;3613;48.902;9.204;2023-09-19T04:20:20;15.90;99.90
7143;DHT22;3613;48.902;9.204;2023-09-19T04:22:47;16.00;99.90
7143;DHT22;3613;48.902;9.204;2023-09-19T04:25:15;16.00;99.90
7143;DHT22;3613;48.902;9.204;2023-09-19T04:27:41;16.00;99.90
7143;DHT22;3613;48.902;9.204;2023-09-19T04:30:07;16.10;99.90
7143;DHT22;3613;48.902;9.204;2023-09-19T04:32:38;16.10;99.90
7143;DHT22;3613;48.902;9.204;2023-09-19T04:35:06;16.10;99.90
7143;DHT22;3613;48.902;9.204;2023-09-19T04:37:41;16.10;99.90
7143;DHT22;3613;48.902;9.204;2023-09-19T04:40:13;16.10;99.90
7143;DHT22;3613;48.902;9.204;2023-09-19T04:42:52;16.00;99.90
7143;DHT22;3613;48.902;9.204;2023-09-19T04:45:20;16.00;99.90
7143;DHT22;3613;48.902;9.204;2023-09-19T04:47:46;16.10;99.90
7143;DHT22;3613;48.902;9.204;2023-09-19T04:50:14;16.10;99.90
7143;DHT22;3613;48.902;9.204;2023-09-19T04:52:44;16.10;99.90
7143;DHT22;3613;48.902;9.204;2023-09-19T04:55:14;16.10;99.90
7143;DHT22;3613;48.902;9.204;2023-09-19T04:57:49;16.10;99.90
7143;DHT22;3613;48.902;9.204;2023-09-19T05:00:17;16.10;99.90
7143;DHT22;3613;48.902;9.204;2023-09-19T05:02:44;17.60;99.90
7143;DHT22;3613;48.902;9.204;2023-09-19T05:05:12;16.00;99.90
7143;DHT22;3613;48.902;9.204;2023-09-19T05:07:42;15.90;99.90
7143;DHT22;3613;48.902;9.204;2023-09-19T05:10:08;15.90;99.90
7143;DHT22;3613;48.902;9.204;2023-09-19T05:12:35;15.80;99.90
7143;DHT22;3613;48.902;9.204;2023-09-19T05:15:05;15.70;99.90
7143;DHT22;3613;48.902;9.204;2023-09-19T05:17:33;15.70;99.90
7143;DHT22;3613;48.902;9.204;2023-09-19T05:20:02;15.70;99.90
7143;DHT22;3613;48.902;9.204;2023-09-19T05:22:44;15.80;99.90
7143;DHT22;3613;48.902;9.204;2023-09-19T05:25:11;15.80;99.90
7143;DHT22;3613;48.902;9.204;2023-09-19T05:27:42;15.60;99.90
7143;DHT22;3613;48.902;9.204;2023-09-19T05:30:08;15.60;99.90
7143;DHT22;3613;48.902;9.204;2023-09-19T05:32:34;15.60;99.90
7143;DHT22;3613;48.902;9.204;2023-09-19T05:34:59;15.60;99.90
7143;DHT22;3613;48.902;9.204;2023-09-19T05:37:28;15.60;99.90
7143;DHT22;3613;48.902;9.204;2023-09-19T05:39:56;15.60;99.90
7143;DHT22;3613;48.902;9.204;2023-09-19T05:42:22;15.50;99.90
7143;DHT22;3613;48.902;9.204;2023-09-19T05:44:48;15.50;99.90
7143;DHT22;3613;48.902;9.204;2023-09-19T05:47:14;15.40;99.90
7143;DHT22;3613;48.902;9.204;2023-09-19T05:49:42;15.40;99.90
7143;DHT22;3613;48.902;9.204;2023-09-19T05:52:08;15.40;99.90
7143;DHT22;3613;48.902;9.204;2023-09-19T05:54:33;15.40;99.90
7143;DHT22;3613;48.902;9.204;2023-09-19T05:57:02;15.40;99.90
7143;DHT22;3613;48.902;9.204;2023-09-19T05:59:28;15.50;99.90
7143;DHT22;3613;48.902;9.204;2023-09-19T06:01:55;15.60;99.90
7143;DHT22;3613;48.902;9.204;2023-09-19T06:04:21;15.60;99.90
7143;DHT22;3613;48.902;9.204;2023-09-19T06:06:49;15.70;99.90
7143;DHT22;3613;48.902;9.204;2023-09-19T06:09:17;15.80;99.90
7143;DHT22;3613;48.902;9.204;2023-09-19T06:11:43;15.80;99.90
7143;DHT22;3613;48.902;9.204;2023-09-19T06:14:08;15.70;99.90
7143;DHT22;3613;48.902;9.204;2023-09-19T06:16:35;15.70;99.90
7143;DHT22;3613;48.902;9.204;2023-09-19T06:19:03;15.60;99.90
7143;DHT22;3613;48.902;9.204;2023-09-19T06:21:29;15.50;99.90
7143;DHT22;3613;48.902;9.204;2023-09-19T06:23:57;17.40;99.90
7143;DHT22;3613;48.902;9.204;2023-09-19T06:26:23;15.50;99.90
7143;DHT22;3613;48.902;9.204;2023-09-19T06:28:49;15.60;99.90
7143;DHT22;3613;48.902;9.204;2023-09-19T06:31:14;15.60;99.90
7143;DHT22;3613;48.902;9.204;2023-09-19T06:33:40;15.70;99.90
7143;DHT22;3613;48.902;9.204;2023-09-19T06:36:06;15.70;99.90
7143;DHT22;3613;48.902;9.204;2023-09-19T06:38:33;15.80;99.90
7143;DHT22;3613;48.902;9.204;2023-09-19T06:41:02;15.90;99.90
7143;DHT22;3613;48.902;9.204;2023-09-19T06:43:36;16.00;99.90
7143;DHT22;3613;48.902;9.204;2023-09-19T06:46:02;16.00;99.90
7143;DHT22;3613;48.902;9.204;2023-09-19T06:48:27;16.30;99.90
7143;DHT22;3613;48.902;9.204;2023-09-19T06:50:57;17.10;99.90
7143;DHT22;3613;48.902;9.204;2023-09-19T06:53:24;18.10;99.90
7143;DHT22;3613;48.902;9.204;2023-09-19T06:55:52;18.70;99.90
7143;DHT22;3613;48.902;9.204;2023-09-19T06:58:18;18.90;94.70
7143;DHT22;3613;48.902;9.204;2023-09-19T07:00:45;19.30;79.20
7143;DHT22;3613;48.902;9.204;2023-09-19T07:03:17;19.60;16.60
7143;DHT22;3613;48.902;9.204;2023-09-19T07:05:48;19.90;1.00
7143;DHT22;3613;48.902;9.204;2023-09-19T07:08:13;20.60;1.00
7143;DHT22;3613;48.902;9.204;2023-09-19T07:10:40;21.20;1.00
7143;DHT22;3613;48.902;9.204;2023-09-19T07:13:14;21.60;1.00
7143;DHT22;3613;48.902;9.204;2023-09-19T07:15:43;22.10;1.00
7143;DHT22;3613;48.902;9.204;2023-09-19T07:18:16;21.90;1.00
7143;DHT22;3613;48.902;9.204;2023-09-19T07:20:48;21.60;1.00
7143;DHT22;3613;48.902;9.204;2023-09-19T07:23:20;21.10;1.00
7143;DHT22;3613;48.902;9.204;2023-09-19T07:25:47;20.70;1.00
7143;DHT22;3613;48.902;9.204;2023-09-19T07:28:14;20.30;1.00
7143;DHT22;3613;48.902;9.204;2023-09-19T07:30:40;20.20;1.00
7143;DHT22;3613;48.902;9.204;2023-09-19T07:33:07;20.20;1.00
7143;DHT22;3613;48.902;9.204;2023-09-19T07:35:37;20.40;1.00
7143;DHT22;3613;48.902;9.204;2023-09-19T07:38:05;20.70;1.00
7143;DHT22;3613;48.902;9.204;2023-09-19T07:40:31;21.10;1.00
7143;DHT22;3613;48.902;9.204;2023-09-19T07:42:57;21.60;1.00
7143;DHT22;3613;48.902;9.204;2023-09-19T07:45:29;22.00;99.90
7143;DHT22;3613;48.902;9.204;2023-09-19T07:47:58;22.60;99.90
7143;DHT22;3613;48.902;9.204;2023-09-19T07:50:25;22.80;99.90
7143;DHT22;3613;48.902;9.204;2023-09-19T07:52:56;23.10;99.90
7143;DHT22;3613;48.902;9.204;2023-09-19T07:55:22;23.20;1.00
7143;DHT22;3613;48.902;9.204;2023-09-19T07:57:54;23.50;1.00
7143;DHT22;3613;48.902;9.204;2023-09-19T08:00:20;23.40;1.00
7143;DHT22;3613;48.902;9.204;2023-09-19T08:02:45;23.50;1.00
7143;DHT22;3613;48.902;9.204;2023-09-19T08:05:12;23.50;1.00
7143;DHT22;3613;48.902;9.204;2023-09-19T08:07:42;23.10;1.00
7143;DHT22;3613;48.902;9.204;2023-09-19T08:10:09;23.10;1.00
7143;DHT22;3613;48.902;9.204;2023-09-19T08:12:42;23.70;1.00
7143;DHT22;3613;48.902;9.204;2023-09-19T08:17:42;25.70;1.00
7143;DHT22;3613;48.902;9.204;2023-09-19T08:20:09;26.50;1.00
7143;DHT22;3613;48.902;9.204;2023-09-19T08:22:51;26.90;99.90
7143;DHT22;3613;48.902;9.204;2023-09-19T08:25:22;26.90;99.90
7143;DHT22;3613;48.902;9.204;2023-09-19T08:27:49;26.60;99.90
7143;DHT22;3613;48.902;9.204;2023-09-19T08:30:21;26.60;99.90
7143;DHT22;3613;48.902;9.204;2023-09-19T08:33:01;26.60;80.50
7143;DHT22;3613;48.902;9.204;2023-09-19T08:35:32;26.70;1.00
7143;DHT22;3613;48.902;9.204;2023-09-19T08:38:01;26.40;1.00
7143;DHT22;3613;48.902;9.204;2023-09-19T08:40:30;26.20;10.60
7143;DHT22;3613;48.902;9.204;2023-09-19T08:43:01;26.10;99.90
7143;DHT22;3613;48.902;9.204;2023-09-19T08:45:31;26.30;1.00
7143;DHT22;3613;48.902;9.204;2023-09-19T08:48:33;26.30;1.00
7143;DHT22;3613;48.902;9.204;2023-09-19T08:53:47;26.70;1.00
7143;DHT22;3613;48.902;9.204;2023-09-19T08:56:17;26.80;1.00
7143;DHT22;3613;48.902;9.204;2023-09-19T08:58:52;26.60;1.00
7143;DHT22;3613;48.902;9.204;2023-09-19T09:01:25;26.50;1.00
7143;DHT22;3613;48.902;9.204;2023-09-19T09:03:58;26.30;1.00
7143;DHT22;3613;48.902;9.204;2023-09-19T09:06:25;26.00;1.00
7143;DHT22;3613;48.902;9.204;2023-09-19T09:08:51;26.20;1.00
7143;DHT22;3613;48.902;9.204;2023-09-19T09:11:20;27.10;1.00
7143;DHT22;3613;48.902;9.204;2023-09-19T09:13:46;27.60;1.00
7143;DHT22;3613;48.902;9.204;2023-09-19T09:16:13;27.50;1.00
7143;DHT22;3613;48.902;9.204;2023-09-19T09:18:39;27.90;1.00
7143;DHT22;3613;48.902;9.204;2023-09-19T09:21:08;28.00;1.00
7143;DHT22;3613;48.902;9.204;2023-09-19T09:23:34;28.40;99.90
7143;DHT22;3613;48.902;9.204;2023-09-19T09:26:00;28.60;99.90
7143;DHT22;3613;48.902;9.204;2023-09-19T09:28:31;28.00;56.40
7143;DHT22;3613;48.902;9.204;2023-09-19T09:31:01;27.70;85.00
7143;DHT22;3613;48.902;9.204;2023-09-19T09:33:34;27.00;97.40
7143;DHT22;3613;48.902;9.204;2023-09-19T09:36:03;26.90;1.00
7143;DHT22;3613;48.902;9.204;2023-09-19T09:38:43;27.10;18.90
7143;DHT22;3613;48.902;9.204;2023-09-19T09:41:16;27.40;48.50
7143;DHT22;3613;48.902;9.204;2023-09-19T09:43:53;27.30;1.00
7143;DHT22;3613;48.902;9.204;2023-09-19T09:46:20;27.30;1.00
7143;DHT22;3613;48.902;9.204;2023-09-19T09:48:47;27.10;1.00
7143;DHT22;3613;48.902;9.204;2023-09-19T09:51:30;27.20;1.00
7143;DHT22;3613;48.902;9.204;2023-09-19T09:54:14;27.10;1.00
7143;DHT22;3613;48.902;9.204;2023-09-19T09:56:56;26.80;1.00
7143;DHT22;3613;48.902;9.204;2023-09-19T10:02:14;27.00;1.00
7143;DHT22;3613;48.902;9.204;2023-09-19T10:04:48;27.00;1.00
7143;DHT22;3613;48.902;9.204;2023-09-19T10:07:25;26.90;1.00
7143;DHT22;3613;48.902;9.204;2023-09-19T10:09:56;26.70;1.00
7143;DHT22;3613;48.902;9.204;2023-09-19T10:12:31;26.10;1.00
7143;DHT22;3613;48.902;9.204;2023-09-19T10:14:59;25.80;1.00
7143;DHT22;3613;48.902;9.204;2023-09-19T10:17:32;26.20;1.00
7143;DHT22;3613;48.902;9.204;2023-09-19T10:20:00;26.20;1.00
7143;DHT22;3613;48.902;9.204;2023-09-19T10:22:35;26.20;1.00
7143;DHT22;3613;48.902;9.204;2023-09-19T10:25:04;25.70;19.10
7143;DHT22;3613;48.902;9.204;2023-09-19T10:27:35;25.40;96.60
7143;DHT22;3613;48.902;9.204;2023-09-19T10:30:08;25.60;85.10
7143;DHT22;3613;48.902;9.204;2023-09-19T10:32:35;26.00;1.00
7143;DHT22;3613;48.902;9.204;2023-09-19T10:35:05;26.20;1.00
7143;DHT22;3613;48.902;9.204;2023-09-19T10:37:34;26.90;1.00
7143;DHT22;3613;48.902;9.204;2023-09-19T10:40:04;27.20;1.00
7143;DHT22;3613;48.902;9.204;2023-09-19T10:42:38;27.00;1.00
7143;DHT22;3613;48.902;9.204;2023-09-19T10:45:06;26.70;1.00
7143;DHT22;3613;48.902;9.204;2023-09-19T10:47:38;26.20;1.00
7143;DHT22;3613;48.902;9.204;2023-09-19T10:50:05;25.80;1.00
7143;DHT22;3613;48.902;9.204;2023-09-19T10:52:31;25.40;9.40
7143;DHT22;3613;48.902;9.204;2023-09-19T10:55:00;25.30;1.00
7143;DHT22;3613;48.902;9.204;2023-09-19T10:57:26;25.20;1.00
7143;DHT22;3613;48.902;9.204;2023-09-19T11:00:07;25.10;1.00
7143;DHT22;3613;48.902;9.204;2023-09-19T11:05:35;24.50;90.80
7143;DHT22;3613;48.902;9.204;2023-09-19T11:08:07;24.30;99.90
7143;DHT22;3613;48.902;9.204;2023-09-19T11:10:46;24.20;99.90
7143;DHT22;3613;48.902;9.204;2023-09-19T11:13:29;23.80;99.90
7143;DHT22;3613;48.902;9.204;2023-09-19T11:26:48;22.70;1.00
7143;DHT22;3613;48.902;9.204;2023-09-19T11:29:32;22.70;1.00
7143;DHT22;3613;48.902;9.204;2023-09-19T11:31:58;23.10;1.00
7143;DHT22;3613;48.902;9.204;2023-09-19T11:39:42;25.10;99.90
7143;DHT22;3613;48.902;9.204;2023-09-19T11:42:44;25.80;92.80
7143;DHT22;3613;48.902;9.204;2023-09-19T11:48:23;27.50;1.00
7143;DHT22;3613;48.902;9.204;2023-09-19T11:50:51;27.60;1.00
7143;DHT22;3613;48.902;9.204;2023-09-19T11:53:20;27.80;1.00
7143;DHT22;3613;48.902;9.204;2023-09-19T11:55:46;28.10;1.00
7143;DHT22;3613;48.902;9.204;2023-09-19T11:58:15;28.80;1.00
7143;DHT22;3613;48.902;9.204;2023-09-19T12:00:44;29.20;1.00
7143;DHT22;3613;48.902;9.204;2023-09-19T12:03:11;29.50;1.00
7143;DHT22;3613;48.902;9.204;2023-09-19T12:05:39;29.60;1.00
7143;DHT22;3613;48.902;9.204;2023-09-19T12:08:05;29.00;1.00
7143;DHT22;3613;48.902;9.204;2023-09-19T12:10:47;27.80;1.00
7143;DHT22;3613;48.902;9.204;2023-09-19T12:13:20;27.90;1.00
7143;DHT22;3613;48.902;9.204;2023-09-19T12:15:46;27.80;1.00
7143;DHT22;3613;48.902;9.204;2023-09-19T12:18:29;28.30;1.00
7143;DHT22;3613;48.902;9.204;2023-09-19T12:20:55;28.80;1.00
7143;DHT22;3613;48.902;9.204;2023-09-19T12:23:21;29.70;1.00
7143;DHT22;3613;48.902;9.204;2023-09-19T12:25:47;30.20;1.00
7143;DHT22;3613;48.902;9.204;2023-09-19T12:28:17;30.20;1.00
7143;DHT22;3613;48.902;9.204;2023-09-19T12:30:43;30.70;11.80
7143;DHT22;3613;48.902;9.204;2023-09-19T12:33:19;31.10;1.00
7143;DHT22;3613;48.902;9.204;2023-09-19T12:35:45;31.20;1.00
7143;DHT22;3613;48.902;9.204;2023-09-19T12:38:28;31.20;1.00
7143;DHT22;3613;48.902;9.204;2023-09-19T12:40:55;31.20;99.90
7143;DHT22;3613;48.902;9.204;2023-09-19T12:43:22;31.70;99.90
7143;DHT22;3613;48.902;9.204;2023-09-19T12:45:48;31.50;99.90
7143;DHT22;3613;48.902;9.204;2023-09-19T12:48:25;31.20;99.90
7143;DHT22;3613;48.902;9.204;2023-09-19T12:53:34;31.60;99.90
7143;DHT22;3613;48.902;9.204;2023-09-19T12:56:03;31.70;99.90
7143;DHT22;3613;48.902;9.204;2023-09-19T12:58:54;30.50;99.90
7143;DHT22;3613;48.902;9.204;2023-09-19T13:01:21;29.60;99.90
7143;DHT22;3613;48.902;9.204;2023-09-19T13:06:55;29.50;99.90
7143;DHT22;3613;48.902;9.204;2023-09-19T13:09:27;29.80;99.90
7143;DHT22;3613;48.902;9.204;2023-09-19T13:12:37;29.50;99.90
7143;DHT22;3613;48.902;9.204;2023-09-19T13:15:14;29.70;99.90
7143;DHT22;3613;48.902;9.204;2023-09-19T13:17:48;30.00;99.90
7143;DHT22;3613;48.902;9.204;2023-09-19T13:20:29;30.10;99.90
7143;DHT22;3613;48.902;9.204;2023-09-19T13:22:57;29.60;99.90
7143;DHT22;3613;48.902;9.204;2023-09-19T13:25:33;28.60;99.90
7143;DHT22;3613;48.902;9.204;2023-09-19T13:28:04;27.60;99.90
7143;DHT22;3613;48.902;9.204;2023-09-19T13:30:30;26.90;85.40
7143;DHT22;3613;48.902;9.204;2023-09-19T13:33:07;26.30;92.40
7143;DHT22;3613;48.902;9.204;2023-09-19T13:35:33;25.90;20.50
7143;DHT22;3613;48.902;9.204;2023-09-19T13:37:58;25.50;15.40
7143;DHT22;3613;48.902;9.204;2023-09-19T13:40:24;25.00;1.00
7143;DHT22;3613;48.902;9.204;2023-09-19T13:43:01;24.70;99.90
7143;DHT22;3613;48.902;9.204;2023-09-19T13:45:26;24.70;99.90
7143;DHT22;3613;48.902;9.204;2023-09-19T13:47:56;24.60;99.90
7143;DHT22;3613;48.902;9.204;2023-09-19T13:50:24;24.50;99.90
7143;DHT22;3613;48.902;9.204;2023-09-19T13:52:51;24.50;99.90
7143;DHT22;3613;48.902;9.204;2023-09-19T13:55:19;24.20;99.90
7143;DHT22;3613;48.902;9.204;2023-09-19T13:57:46;23.90;99.90
7143;DHT22;3613;48.902;9.204;2023-09-19T14:00:16;23.90;99.90
7143;DHT22;3613;48.902;9.204;2023-09-19T14:02:42;23.90;99.90
7143;DHT22;3613;48.902;9.204;2023-09-19T14:05:10;23.80;99.90
7143;DHT22;3613;48.902;9.204;2023-09-19T14:07:40;23.80;99.90
7143;DHT22;3613;48.902;9.204;2023-09-19T14:10:10;23.90;99.90
7143;DHT22;3613;48.902;9.204;2023-09-19T14:12:39;23.90;99.90
7143;DHT22;3613;48.902;9.204;2023-09-19T14:15:08;23.80;99.90
7143;DHT22;3613;48.902;9.204;2023-09-19T14:17:34;23.70;99.90
7143;DHT22;3613;48.902;9.204;2023-09-19T14:20:00;23.50;99.90
7143;DHT22;3613;48.902;9.204;2023-09-19T14:22:25;23.30;99.90
7143;DHT22;3613;48.902;9.204;2023-09-19T14:24:51;23.30;99.90
7143;DHT22;3613;48.902;9.204;2023-09-19T14:27:18;23.10;1.00
7143;DHT22;3613;48.902;9.204;2023-09-19T14:29:46;23.00;1.00
7143;DHT22;3613;48.902;9.204;2023-09-19T14:32:11;22.90;1.00
7143;DHT22;3613;48.902;9.204;2023-09-19T14:34:38;22.90;1.00
7143;DHT22;3613;48.902;9.204;2023-09-19T14:37:08;22.80;1.00
7143;DHT22;3613;48.902;9.204;2023-09-19T14:39:33;22.70;1.00
7143;DHT22;3613;48.902;9.204;2023-09-19T14:41:59;22.70;1.00
7143;DHT22;3613;48.902;9.204;2023-09-19T14:44:24;22.80;1.00
7143;DHT22;3613;48.902;9.204;2023-09-19T14:46:53;22.90;1.00
7143;DHT22;3613;48.902;9.204;2023-09-19T14:49:20;23.70;1.00
7143;DHT22;3613;48.902;9.204;2023-09-19T14:51:45;23.10;1.00
7143;DHT22;3613;48.902;9.204;2023-09-19T14:54:13;23.10;1.00
7143;DHT22;3613;48.902;9.204;2023-09-19T14:56:42;23.10;1.00
7143;DHT22;3613;48.902;9.204;2023-09-19T14:59:10;23.00;1.00
7143;DHT22;3613;48.902;9.204;2023-09-19T15:01:41;23.00;1.00
7143;DHT22;3613;48.902;9.204;2023-09-19T15:04:07;23.10;1.00
7143;DHT22;3613;48.902;9.204;2023-09-19T15:06:34;23.10;1.00
7143;DHT22;3613;48.902;9.204;2023-09-19T15:08:59;23.10;1.00
7143;DHT22;3613;48.902;9.204;2023-09-19T15:11:25;23.00;1.00
7143;DHT22;3613;48.902;9.204;2023-09-19T15:13:54;23.00;1.00
7143;DHT22;3613;48.902;9.204;2023-09-19T15:16:20;22.90;1.00
7143;DHT22;3613;48.902;9.204;2023-09-19T15:18:46;22.80;1.00
7143;DHT22;3613;48.902;9.204;2023-09-19T15:21:15;22.80;1.00
7143;DHT22;3613;48.902;9.204;2023-09-19T15:23:42;22.70;1.00
7143;DHT22;3613;48.902;9.204;2023-09-19T15:26:12;22.70;1.00
7143;DHT22;3613;48.902;9.204;2023-09-19T15:28:40;22.70;1.00
7143;DHT22;3613;48.902;9.204;2023-09-19T15:31:10;22.80;1.00
7143;DHT22;3613;48.902;9.204;2023-09-19T15:33:39;22.80;1.00
7143;DHT22;3613;48.902;9.204;2023-09-19T15:36:06;22.70;1.00
7143;DHT22;3613;48.902;9.204;2023-09-19T15:38:56;22.60;1.00
7143;DHT22;3613;48.902;9.204;2023-09-19T15:41:33;22.50;1.00
7143;DHT22;3613;48.902;9.204;2023-09-19T15:44:11;22.40;1.00
7143;DHT22;3613;48.902;9.204;2023-09-19T15:46:37;22.30;1.00
7143;DHT22;3613;48.902;9.204;2023-09-19T15:49:03;22.20;1.00
7143;DHT22;3613;48.902;9.204;2023-09-19T15:51:31;22.10;1.00
7143;DHT22;3613;48.902;9.204;2023-09-19T15:53:57;22.10;1.00
7143;DHT22;3613;48.902;9.204;2023-09-19T15:56:25;22.10;1.00
7143;DHT22;3613;48.902;9.204;2023-09-19T15:58:54;22.00;1.00
7143;DHT22;3613;48.902;9.204;2023-09-19T16:01:21;21.90;26.20
7143;DHT22;3613;48.902;9.204;2023-09-19T16:03:49;21.70;96.40
7143;DHT22;3613;48.902;9.204;2023-09-19T16:06:18;21.60;99.90
7143;DHT22;3613;48.902;9.204;2023-09-19T16:08:49;21.50;99.90
7143;DHT22;3613;48.902;9.204;2023-09-19T16:11:18;21.20;99.90
7143;DHT22;3613;48.902;9.204;2023-09-19T16:13:50;21.30;99.90
7143;DHT22;3613;48.902;9.204;2023-09-19T16:16:16;21.20;99.90
7143;DHT22;3613;48.902;9.204;2023-09-19T16:18:46;21.20;99.90
7143;DHT22;3613;48.902;9.204;2023-09-19T16:21:15;21.20;99.90
7143;DHT22;3613;48.902;9.204;2023-09-19T16:23:48;21.10;99.90
7143;DHT22;3613;48.902;9.204;2023-09-19T16:26:16;21.20;14.40
7143;DHT22;3613;48.902;9.204;2023-09-19T16:28:44;21.10;99.90
7143;DHT22;3613;48.902;9.204;2023-09-19T16:31:09;21.20;99.90
7143;DHT22;3613;48.902;9.204;2023-09-19T16:33:39;21.10;99.90
7143;DHT22;3613;48.902;9.204;2023-09-19T16:36:19;21.10;99.90
7143;DHT22;3613;48.902;9.204;2023-09-19T16:38:48;21.10;99.90
7143;DHT22;3613;48.902;9.204;2023-09-19T16:41:14;21.00;99.90
7143;DHT22;3613;48.902;9.204;2023-09-19T16:43:42;20.90;99.90
7143;DHT22;3613;48.902;9.204;2023-09-19T16:46:09;20.90;99.90
7143;DHT22;3613;48.902;9.204;2023-09-19T16:48:38;20.80;99.90
7143;DHT22;3613;48.902;9.204;2023-09-19T16:51:06;20.70;99.90
7143;DHT22;3613;48.902;9.204;2023-09-19T16:53:36;20.60;1.00
7143;DHT22;3613;48.902;9.204;2023-09-19T16:56:06;20.50;1.00
7143;DHT22;3613;48.902;9.204;2023-09-19T16:58:37;20.40;1.00
7143;DHT22;3613;48.902;9.204;2023-09-19T17:01:06;20.30;1.00
7143;DHT22;3613;48.902;9.204;2023-09-19T17:03:36;20.20;1.00
7143;DHT22;3613;48.902;9.204;2023-09-19T17:06:02;20.10;1.00
7143;DHT22;3613;48.902;9.204;2023-09-19T17:08:29;20.00;98.70
7143;DHT22;3613;48.902;9.204;2023-09-19T17:11:09;19.90;99.90